Time;durP1;ratioP1;P1;durP2;ratioP2;P2;SDS_P1;SDS_P2;PMS_P1;PMS_P2;Temp;Humidity;BMP_temperature;BMP_pressure;BME280_temperature;BME280_humidity;BME280_pressure;Samples;Min_cycle;Max_cycle;Signal;HPM_P1;HPM_P2
2021/05/28 00:01:47;;;;;;;;;;;;;;;21.65;61.75;101025.97;5088577;28;1255;-63
2021/05/28 00:04:33;;;;;;;;;;;;;;;21.65;61.66;101011.84;5088685;28;571;-64
2021/05/28 00:07:18;;;;;;;;;;;;;;;21.66;61.68;101016.22;5088814;28;1360;-64
2021/05/28 00:10:04;;;;;;;;;;;;;;;21.64;61.61;101016.31;5087537;28;639;-63
2021/05/28 00:12:49;;;;;;;;;;;;;;;21.65;61.55;101011.84;5088814;28;1906;-64
2021/05/28 00:15:35;;;;;;;;;;;;;;;21.64;61.54;101015.47;5088224;28;1292;-64
2021/05/28 00:18:20;;;;;;;;;;;;;;;21.64;61.23;101018.13;5088395;28;1178;-64
2021/05/28 00:21:06;;;;;;;;;;;;;;;21.63;61.24;101005.81;5088581;28;1351;-64
2021/05/28 00:23:51;;;;;;;;;;;;;;;21.63;61.31;100998.72;5087423;28;618;-65
2021/05/28 00:26:37;;;;;;;;;;;;;;;21.63;61.54;101000.50;5088798;28;1329;-63
2021/05/28 00:29:22;;;;;;;;;;;;;;;21.64;61.12;100997.75;5087346;28;639;-64
2021/05/28 00:32:07;;;;;;;;;;;;;;;21.63;61.04;100997.84;5088458;28;1280;-63
2021/05/28 00:34:52;;;;;;;;;;;;;;;21.61;61.09;100984.69;5088238;28;1902;-64
2021/05/28 00:37:38;;;;;;;;;;;;;;;21.63;61.24;100995.22;5088606;28;1221;-64
2021/05/28 00:40:24;;;;;;;;;;;;;;;21.63;61.36;100992.56;5088240;28;611;-64
2021/05/28 00:43:09;;;;;;;;;;;;;;;21.61;61.42;100992.63;5088555;28;1138;-64
2021/05/28 00:45:54;;;;;;;;;;;;;;;21.62;61.37;100990.84;5088608;28;1244;-64
2021/05/28 00:48:39;;;;;;;;;;;;;;;21.60;61.24;100990.09;5088612;28;1045;-64
2021/05/28 00:51:25;;;;;;;;;;;;;;;21.62;61.17;100985.53;5088038;28;2194;-67
2021/05/28 00:54:10;;;;;;;;;;;;;;;21.61;61.10;100990.00;5088136;28;1902;-64
2021/05/28 00:56:55;;;;;;;;;;;;;;;21.61;61.34;100994.47;5088178;28;1363;-64
2021/05/28 00:59:41;;;;;;;;;;;;;;;21.62;61.30;100993.50;5091977;28;636;-64
2021/05/28 01:02:26;;;;;;;;;;;;;;;21.60;61.25;100993.63;5091942;28;1351;-65
2021/05/28 01:05:12;;;;;;;;;;;;;;;21.60;61.12;100987.47;5092063;28;635;-64
2021/05/28 01:07:58;;;;;;;;;;;;;;;21.60;60.95;100984.81;5091522;28;1303;-63
2021/05/28 01:10:43;;;;;;;;;;;;;;;21.59;61.27;100989.25;5091579;28;1319;-64
2021/05/28 01:13:28;;;;;;;;;;;;;;;21.60;60.88;100988.31;5092076;28;1976;-64
2021/05/28 01:16:14;;;;;;;;;;;;;;;21.59;61.28;100983.09;5091305;28;1354;-65
2021/05/28 01:18:59;;;;;;;;;;;;;;;21.60;61.11;100979.50;5091621;28;627;-64
2021/05/28 01:21:44;;;;;;;;;;;;;;;21.60;61.24;100976.84;5091660;28;1288;-64
2021/05/28 01:24:30;;;;;;;;;;;;;;;21.60;61.12;100969.75;5091613;28;651;-65
2021/05/28 01:27:16;;;;;;;;;;;;;;;21.61;61.19;100973.25;5091462;28;1351;-64
2021/05/28 01:30:03;;;;;;;;;;;;;;;21.60;61.17;100963.59;5091646;28;683;-64
2021/05/28 01:32:49;;;;;;;;;;;;;;;21.59;61.27;100965.38;5091836;28;1918;-64
2021/05/28 01:35:35;;;;;;;;;;;;;;;21.60;60.88;100958.28;5091310;28;1335;-64
2021/05/28 01:38:21;;;;;;;;;;;;;;;21.59;61.03;100954.78;5090259;28;1027;-64
2021/05/28 01:41:06;;;;;;;;;;;;;;;21.58;61.25;100953.06;5091490;28;1341;-64
2021/05/28 01:43:51;;;;;;;;;;;;;;;21.59;61.13;100959.22;5091153;28;743;-64
2021/05/28 01:46:37;;;;;;;;;;;;;;;21.58;61.00;100952.25;5091276;28;1270;-64
2021/05/28 01:49:22;;;;;;;;;;;;;;;21.58;61.09;100952.25;5089817;28;647;-64
2021/05/28 01:52:08;;;;;;;;;;;;;;;21.59;61.25;100951.28;5090881;28;1384;-64
2021/05/28 01:54:53;;;;;;;;;;;;;;;21.58;61.20;100953.06;5091190;28;1909;-64
2021/05/28 01:57:39;;;;;;;;;;;;;;;21.58;60.75;100949.59;5090930;28;1272;-64
2021/05/28 02:00:24;;;;;;;;;;;;;;;21.57;61.22;100950.53;5091026;28;691;-64
2021/05/28 02:03:09;;;;;;;;;;;;;;;21.58;60.92;100957.56;5089750;28;1049;-64
2021/05/28 02:05:55;;;;;;;;;;;;;;;21.58;61.09;100957.56;5089246;28;1346;-64
2021/05/28 02:08:40;;;;;;;;;;;;;;;21.58;61.14;100953.06;5090977;28;1094;-64
2021/05/28 02:11:25;;;;;;;;;;;;;;;21.57;60.98;100951.41;5090405;28;1309;-65
2021/05/28 02:14:11;;;;;;;;;;;;;;;21.59;60.99;100964.53;5090182;28;1910;-63
2021/05/28 02:16:56;;;;;;;;;;;;;;;21.58;61.06;100968.16;5090605;28;1363;-64
2021/05/28 02:19:41;;;;;;;;;;;;;;;21.57;60.75;100964.66;5090455;28;667;-64
2021/05/28 02:22:26;;;;;;;;;;;;;;;21.57;61.13;100969.09;5090606;28;1232;-63
2021/05/28 02:25:13;;;;;;;;;;;;;;;21.57;60.94;100972.59;5090342;28;722;-64
2021/05/28 02:27:58;;;;;;;;;;;;;;;21.56;61.19;100967.38;5090194;28;1382;-64
2021/05/28 02:30:43;;;;;;;;;;;;;;;21.57;60.84;100971.75;5090002;28;1221;-64
2021/05/28 02:33:29;;;;;;;;;;;;;;;21.57;61.04;100979.69;5090558;28;1906;-64
2021/05/28 02:36:14;;;;;;;;;;;;;;;21.56;61.15;100972.69;5090014;28;1362;-64
2021/05/28 02:38:59;;;;;;;;;;;;;;;21.57;61.25;100974.41;5089775;28;655;-64
2021/05/28 02:41:44;;;;;;;;;;;;;;;21.57;61.02;100977.06;5090247;28;1304;-64
2021/05/28 02:44:30;;;;;;;;;;;;;;;21.56;61.17;100964.75;5088815;28;656;-64
2021/05/28 02:47:15;;;;;;;;;;;;;;;21.56;60.89;100957.63;5090303;28;1373;-64
2021/05/28 02:50:00;;;;;;;;;;;;;;;21.55;60.92;100963.88;5090116;28;1555;-64
2021/05/28 02:52:46;;;;;;;;;;;;;;;21.54;60.99;100964.84;5089898;28;1256;-64
2021/05/28 02:55:31;;;;;;;;;;;;;;;21.54;60.99;100961.34;5089662;28;636;-63
2021/05/28 02:58:16;;;;;;;;;;;;;;;21.54;60.84;100962.19;5090111;28;912;-63
2021/05/28 03:01:01;;;;;;;;;;;;;;;21.56;61.00;100956.78;5089816;28;1370;-63
2021/05/28 03:03:46;;;;;;;;;;;;;;;21.54;60.78;100950.75;5088471;28;1051;-62
2021/05/28 03:06:32;;;;;;;;;;;;;;;21.54;60.71;100942.78;5089406;28;1293;-63
2021/05/28 03:09:17;;;;;;;;;;;;;;;21.54;60.88;100948.94;5089498;28;722;-63
2021/05/28 03:12:02;;;;;;;;;;;;;;;21.53;60.83;100949.03;5089696;28;1267;-63
2021/05/28 03:14:48;;;;;;;;;;;;;;;21.54;60.78;100948.09;5089634;28;1902;-63
2021/05/28 03:17:33;;;;;;;;;;;;;;;21.53;60.86;100955.19;5089557;28;1350;-64
2021/05/28 03:20:25;;;;;;;;;;;;;;;21.54;60.88;100950.75;5089145;28;707;-64
2021/05/28 03:23:11;;;;;;;;;;;;;;;21.54;60.70;100958.69;5088058;28;937;-63
2021/05/28 03:25:57;;;;;;;;;;;;;;;21.53;60.65;100960.50;5088630;28;1232;-63
2021/05/28 03:28:43;;;;;;;;;;;;;;;21.54;60.93;100964.00;5089228;28;1030;-63
2021/05/28 03:31:28;;;;;;;;;;;;;;;21.52;60.57;100960.59;5089149;28;1272;-63
2021/05/28 03:34:13;;;;;;;;;;;;;;;21.53;60.72;100962.28;5086941;28;1902;-62
2021/05/28 03:36:59;;;;;;;;;;;;;;;21.52;60.49;100955.31;5089297;28;1269;-63
2021/05/28 03:39:45;;;;;;;;;;;;;;;21.52;60.68;100952.66;5089192;28;682;-63
2021/05/28 03:42:31;;;;;;;;;;;;;;;21.52;60.57;100939.41;5088892;28;1185;-63
2021/05/28 03:45:16;;;;;;;;;;;;;;;21.51;60.54;100935.91;5089054;28;637;-63
2021/05/28 03:48:02;;;;;;;;;;;;;;;21.52;60.34;100931.44;5089255;28;1063;-63
2021/05/28 03:50:47;;;;;;;;;;;;;;;21.53;60.38;100935.78;5089038;28;1369;-63
2021/05/28 03:53:32;;;;;;;;;;;;;;;21.52;60.47;100926.16;5089150;28;1949;-63
2021/05/28 03:56:17;;;;;;;;;;;;;;;21.51;60.43;100930.59;5089165;28;1362;-63
2021/05/28 03:59:03;;;;;;;;;;;;;;;21.52;60.32;100923.50;5088752;28;663;-62
2021/05/28 04:01:48;;;;;;;;;;;;;;;21.51;60.36;100922.66;5087108;28;1364;-62
2021/05/28 04:04:34;;;;;;;;;;;;;;;21.50;60.71;100925.38;5089250;28;627;-63
2021/05/28 04:07:20;;;;;;;;;;;;;;;21.51;60.57;100922.66;5088804;28;1295;-63
2021/05/28 04:10:05;;;;;;;;;;;;;;;21.50;60.69;100923.59;5089079;28;624;-63
2021/05/28 04:12:53;;;;;;;;;;;;;;;21.51;60.32;100929.75;5088770;28;1299;-62
2021/05/28 04:15:38;;;;;;;;;;;;;;;21.50;60.32;100922.72;5088685;28;1976;-63
2021/05/28 04:18:23;;;;;;;;;;;;;;;21.49;60.34;100921.88;5088946;28;952;-63
2021/05/28 04:21:08;;;;;;;;;;;;;;;21.49;60.67;100918.41;5088864;28;1350;-63
2021/05/28 04:23:54;;;;;;;;;;;;;;;21.48;60.61;100920.19;5088516;28;789;-64
2021/05/28 04:26:41;;;;;;;;;;;;;;;21.49;60.71;100921.06;5088439;28;1296;-63
2021/05/28 04:29:26;;;;;;;;;;;;;;;21.50;60.46;100917.44;5088209;28;632;-64
2021/05/28 04:32:11;;;;;;;;;;;;;;;21.49;60.34;100913.09;5088454;28;1342;-65
2021/05/28 04:34:57;;;;;;;;;;;;;;;21.48;60.41;100914.03;5092380;28;1913;-64
2021/05/28 04:37:43;;;;;;;;;;;;;;;21.49;60.41;100915.75;5092568;28;1315;-64
2021/05/28 04:40:30;;;;;;;;;;;;;;;21.48;60.31;100922.84;5092319;28;620;-64
2021/05/28 04:43:16;;;;;;;;;;;;;;;21.49;60.49;100931.66;5091191;28;1204;-63
2021/05/28 04:46:01;;;;;;;;;;;;;;;21.49;60.52;100921.06;5092119;28;1288;-64
2021/05/28 04:48:47;;;;;;;;;;;;;;;21.49;60.51;100927.19;5092018;28;913;-64
2021/05/28 04:51:32;;;;;;;;;;;;;;;21.48;60.32;100929.94;5092080;28;1374;-64
2021/05/28 04:54:17;;;;;;;;;;;;;;;21.49;60.39;100931.66;5091857;28;1902;-64
2021/05/28 04:57:03;;;;;;;;;;;;;;;21.47;60.47;100937.03;5092132;28;1380;-64
2021/05/28 04:59:48;;;;;;;;;;;;;;;21.48;60.37;100940.53;5092242;28;664;-63
2021/05/28 05:02:34;;;;;;;;;;;;;;;21.48;60.60;100940.53;5092088;28;1380;-64
2021/05/28 05:05:20;;;;;;;;;;;;;;;21.48;60.43;100941.41;5091626;28;671;-63
2021/05/28 05:08:05;;;;;;;;;;;;;;;21.48;60.30;100946.69;5092341;28;1073;-63
2021/05/28 05:10:50;;;;;;;;;;;;;;;21.48;60.53;100945.84;5091577;28;1338;-64
2021/05/28 05:13:35;;;;;;;;;;;;;;;21.47;60.69;100944.13;5091910;28;1087;-64
2021/05/28 05:16:20;;;;;;;;;;;;;;;21.49;60.31;100939.59;5090746;28;1455;-64
2021/05/28 05:19:25;;;;;;;;;;;;;;;21.48;60.47;100940.53;5091929;28;715;-64
2021/05/28 05:22:11;;;;;;;;;;;;;;;21.47;60.53;100945.00;5091458;28;1295;-64
2021/05/28 05:24:56;;;;;;;;;;;;;;;21.48;60.40;100945.84;5091393;28;701;-64
2021/05/28 05:27:41;;;;;;;;;;;;;;;21.47;60.69;100945.00;5091627;28;1295;-64
2021/05/28 05:30:27;;;;;;;;;;;;;;;21.48;60.37;100951.16;5091423;28;720;-63
2021/05/28 05:33:12;;;;;;;;;;;;;;;21.48;60.65;100943.19;5091527;28;1079;-64
2021/05/28 05:35:58;;;;;;;;;;;;;;;21.48;60.35;100940.53;5090968;28;1957;-64
2021/05/28 05:38:43;;;;;;;;;;;;;;;21.48;60.57;100940.53;5091586;28;1159;-64
2021/05/28 05:41:29;;;;;;;;;;;;;;;21.48;60.74;100937.88;5090906;28;1361;-64
2021/05/28 05:44:14;;;;;;;;;;;;;;;21.47;60.70;100942.34;5090719;28;663;-64
2021/05/28 05:46:59;;;;;;;;;;;;;;;21.48;60.45;100945.84;5091064;28;1276;-64
2021/05/28 05:49:44;;;;;;;;;;;;;;;21.47;60.75;100945.00;5090911;28;1416;-64
2021/05/28 05:52:29;;;;;;;;;;;;;;;21.49;60.36;100942.25;5090616;28;1283;-64
2021/05/28 05:55:16;;;;;;;;;;;;;;;21.47;60.37;100934.38;5091003;28;1965;-64
2021/05/28 05:58:01;;;;;;;;;;;;;;;21.48;60.32;100945.84;5089658;28;1077;-64
2021/05/28 06:00:47;;;;;;;;;;;;;;;21.48;60.35;100948.50;5090589;28;1368;-64
2021/05/28 06:03:32;;;;;;;;;;;;;;;21.49;60.54;100950.19;5091301;28;1082;-64
2021/05/28 06:06:18;;;;;;;;;;;;;;;21.49;60.62;100947.56;5090696;28;1275;-64
2021/05/28 06:09:03;;;;;;;;;;;;;;;21.49;60.31;100947.56;5090710;28;695;-64
2021/05/28 06:11:48;;;;;;;;;;;;;;;21.49;60.59;100945.72;5090172;28;1333;-64
2021/05/28 06:14:34;;;;;;;;;;;;;;;21.49;60.27;100947.56;5090186;28;1898;-64
2021/05/28 06:17:19;;;;;;;;;;;;;;;21.49;60.35;100950.19;5089879;28;1244;-64
2021/05/28 06:20:05;;;;;;;;;;;;;;;21.50;60.18;100965.13;5090047;28;686;-63
2021/05/28 06:22:50;;;;;;;;;;;;;;;21.50;60.46;100967.78;5090044;28;1275;-63
2021/05/28 06:25:36;;;;;;;;;;;;;;;21.50;60.27;100962.47;5090147;28;1288;-63
2021/05/28 06:28:21;;;;;;;;;;;;;;;21.50;60.61;100965.13;5090453;28;925;-62
2021/05/28 06:31:06;;;;;;;;;;;;;;;21.50;60.51;100957.19;5090095;28;1275;-63
2021/05/28 06:33:51;;;;;;;;;;;;;;;21.50;60.54;100959.84;5090001;28;655;-64
2021/05/28 06:36:36;;;;;;;;;;;;;;;21.50;60.57;100959.84;5089812;28;1236;-64
2021/05/28 06:39:22;;;;;;;;;;;;;;;21.51;60.41;100951.81;5089924;28;682;-62
2021/05/28 06:42:07;;;;;;;;;;;;;;;21.51;60.60;100961.53;5090037;28;1291;-64
2021/05/28 06:44:53;;;;;;;;;;;;;;;21.51;60.57;100958.91;5088529;28;648;-64
2021/05/28 06:47:38;;;;;;;;;;;;;;;21.51;60.44;100967.72;5090020;28;1275;-64
2021/05/28 06:50:24;;;;;;;;;;;;;;;21.47;60.19;100962.69;5089947;28;1473;-64
2021/05/28 06:53:09;;;;;;;;;;;;;;;21.52;60.48;100961.44;5089811;28;1150;-63
2021/05/28 06:55:55;;;;;;;;;;;;;;;21.53;60.50;100967.59;5088844;28;1965;-64
2021/05/28 06:58:46;;;;;;;;;;;;;;;21.52;60.24;100968.56;5090146;28;1146;-64
2021/05/28 07:01:32;;;;;;;;;;;;;;;21.53;60.50;100973.75;5089179;28;1231;-63
2021/05/28 07:04:17;;;;;;;;;;;;;;;21.52;60.36;100977.34;5089507;28;632;-64
2021/05/28 07:07:03;;;;;;;;;;;;;;;21.54;60.58;100987.84;5089403;28;1248;-64
2021/05/28 07:09:48;;;;;;;;;;;;;;;21.54;60.56;100985.19;5089414;28;651;-64
2021/05/28 07:12:34;;;;;;;;;;;;;;;21.54;60.30;100985.19;5089435;28;1283;-64
2021/05/28 07:15:20;;;;;;;;;;;;;;;21.53;60.48;100976.41;5088695;28;1898;-64
2021/05/28 07:18:06;;;;;;;;;;;;;;;21.54;60.13;100969.28;5089672;28;1045;-64
2021/05/28 07:20:51;;;;;;;;;;;;;;;21.54;60.08;100977.25;5088993;28;1363;-64
2021/05/28 07:23:36;;;;;;;;;;;;;;;21.54;60.13;100972.81;5088912;28;1000;-64
2021/05/28 07:26:21;;;;;;;;;;;;;;;21.54;60.06;100977.25;5089140;28;1276;-65
2021/05/28 07:29:07;;;;;;;;;;;;;;;21.55;60.40;100977.13;5087288;28;956;-64
2021/05/28 07:31:52;;;;;;;;;;;;;;;21.56;60.37;100975.34;5089336;28;1394;-63
2021/05/28 07:34:38;;;;;;;;;;;;;;;21.54;60.29;100970.16;5088763;28;1963;-65
2021/05/28 07:37:26;;;;;;;;;;;;;;;21.55;60.21;100971.00;5088529;28;1378;-64
2021/05/28 07:40:11;;;;;;;;;;;;;;;21.55;59.89;100977.13;5088825;28;1164;-63
2021/05/28 07:42:57;;;;;;;;;;;;;;;21.56;60.28;100981.50;5088090;28;1291;-64
2021/05/28 07:45:48;;;;;;;;;;;;;;;21.54;60.23;100978.09;5088801;28;1263;-63
2021/05/28 07:48:34;;;;;;;;;;;;;;;21.55;60.47;100987.75;5087422;28;1136;-64
2021/05/28 07:51:19;;;;;;;;;;;;;;;21.56;60.19;100993.91;5088987;28;1611;-63
2021/05/28 07:54:05;;;;;;;;;;;;;;;21.55;60.15;101001.00;5088711;28;978;-64
2021/05/28 07:56:50;;;;;;;;;;;;;;;21.56;60.28;101008.00;5087977;28;1351;-63
2021/05/28 07:59:36;;;;;;;;;;;;;;;21.57;60.31;101015.03;5088713;28;1102;-63
2021/05/28 08:02:21;;;;;;;;;;;;;;;21.56;60.27;101015.94;5088837;28;1277;-63
2021/05/28 08:05:06;;;;;;;;;;;;;;;21.56;60.48;101021.25;5088656;28;1058;-63
2021/05/28 08:07:52;;;;;;;;;;;;;;;21.57;60.34;101030.06;5091171;28;1423;-62
2021/05/28 08:10:37;;;;;;;;;;;;;;;21.56;60.54;101031.84;5092911;28;1368;-63
2021/05/28 08:13:23;;;;;;;;;;;;;;;21.57;60.47;101040.66;5092476;28;651;-63
2021/05/28 08:16:08;;;;;;;;;;;;;;;21.57;60.47;101045.97;5092894;28;1906;-63
2021/05/28 08:18:53;;;;;;;;;;;;;;;21.57;60.60;101048.63;5092286;28;997;-63
2021/05/28 08:21:38;;;;;;;;;;;;;;;21.58;60.68;101051.16;5092300;28;1280;-63
2021/05/28 08:24:24;;;;;;;;;;;;;;;21.59;60.49;101059.97;5092147;28;1044;-63
2021/05/28 08:27:10;;;;;;;;;;;;;;;21.59;60.76;101059.97;5092195;28;1236;-64
2021/05/28 08:29:55;;;;;;;;;;;;;;;21.59;60.57;101066.13;5092207;28;1088;-63
2021/05/28 08:32:41;;;;;;;;;;;;;;;21.59;60.92;101076.72;5091761;28;1240;-62
2021/05/28 08:35:26;;;;;;;;;;;;;;;21.60;60.72;101082.88;5090255;28;1902;-63
2021/05/28 08:38:12;;;;;;;;;;;;;;;21.59;60.68;101078.53;5091266;28;663;-63
2021/05/28 08:40:57;;;;;;;;;;;;;;;21.60;60.83;101088.19;5091761;28;1228;-62
2021/05/28 08:43:43;;;;;;;;;;;;;;;21.59;61.00;101076.72;5092358;28;1065;-62
2021/05/28 08:46:29;;;;;;;;;;;;;;;21.60;61.03;101077.59;5091845;28;1374;-64
2021/05/28 08:49:14;;;;;;;;;;;;;;;21.60;60.99;101082.88;5092272;28;1046;-64
2021/05/28 08:52:00;;;;;;;;;;;;;;;21.60;60.76;101075.78;5092077;28;1370;-63
2021/05/28 08:54:47;;;;;;;;;;;;;;;21.60;61.09;101089.03;5091910;28;1971;-64
2021/05/28 08:57:32;;;;;;;;;;;;;;;21.59;61.02;101081.16;5091611;28;1267;-63
2021/05/28 09:00:18;;;;;;;;;;;;;;;21.60;60.94;101083.75;5091869;28;1104;-64
2021/05/28 09:03:22;;;;;;;;;;;;;;;21.60;61.02;101082.88;5090437;28;718;-63
2021/05/28 09:06:14;;;;;;;;;;;;;;;21.59;61.08;101084.69;5091137;28;1292;-64
2021/05/28 09:09:12;;;;;;;;;;;;;;;21.60;60.76;101080.25;5092024;28;1047;-64
2021/05/28 09:12:04;;;;;;;;;;;;;;;21.60;61.04;101082.88;5091590;28;1359;-64
2021/05/28 09:14:50;;;;;;;;;;;;;;;21.61;61.05;101087.25;5091624;28;1976;-64
2021/05/28 09:17:51;;;;;;;;;;;;;;;21.62;61.08;101083.63;5090765;28;1312;-64
2021/05/28 09:20:37;;;;;;;;;;;;;;;21.61;61.09;101081.94;5091479;28;1333;-63
2021/05/28 09:23:23;;;;;;;;;;;;;;;21.61;61.13;101074.00;5091116;28;615;-64
2021/05/28 09:26:09;;;;;;;;;;;;;;;21.62;61.13;101086.28;5091029;28;1289;-63
2021/05/28 09:28:55;;;;;;;;;;;;;;;21.61;61.17;101081.94;5091292;28;1046;-64
2021/05/28 09:31:42;;;;;;;;;;;;;;;21.61;61.17;101087.25;5091313;28;1275;-64
2021/05/28 09:34:27;;;;;;;;;;;;;;;21.61;60.85;101074.81;5091144;28;1078;-64
2021/05/28 09:37:13;;;;;;;;;;;;;;;21.61;61.21;101080.13;5091003;28;1264;-63
2021/05/28 09:40:28;;;;;;;;;;;;;;;21.61;61.08;101085.41;5091433;28;1074;-64
2021/05/28 09:43:20;;;;;;;;;;;;;;;21.62;61.27;101083.63;5090946;28;674;-64
2021/05/28 09:46:11;;;;;;;;;;;;;;;21.62;61.16;101091.59;5090993;28;1270;-63
2021/05/28 09:49:05;;;;;;;;;;;;;;;21.62;61.01;101097.75;5089673;28;1108;-63
2021/05/28 09:52:07;;;;;;;;;;;;;;;21.61;61.24;101097.84;5090588;28;1195;-63
2021/05/28 09:55:06;;;;;;;;;;;;;;;21.61;60.92;101103.97;5089522;28;1918;-63
2021/05/28 09:57:53;;;;;;;;;;;;;;;21.61;61.15;101106.63;5090897;28;1276;-63
2021/05/28 10:00:39;;;;;;;;;;;;;;;21.62;61.27;101102.19;5089642;28;1258;-63
2021/05/28 10:03:27;;;;;;;;;;;;;;;21.62;61.08;101108.34;5090735;28;690;-64
2021/05/28 10:06:13;;;;;;;;;;;;;;;21.62;61.18;101104.84;5090464;28;1263;-63
2021/05/28 10:08:59;;;;;;;;;;;;;;;21.62;61.12;101103.03;5090485;28;1042;-64
2021/05/28 10:11:44;;;;;;;;;;;;;;;21.62;61.13;101102.19;5089317;28;1378;-64
2021/05/28 10:14:30;;;;;;;;;;;;;;;21.62;61.25;101111.00;5090767;28;1044;-64
2021/05/28 10:17:19;;;;;;;;;;;;;;;21.62;61.23;101115.44;5090096;28;1918;-64
2021/05/28 10:20:06;;;;;;;;;;;;;;;21.62;61.00;101116.31;5090238;28;1157;-64
2021/05/28 10:22:51;;;;;;;;;;;;;;;21.62;61.25;101118.94;5088788;28;1346;-63
2021/05/28 10:25:37;;;;;;;;;;;;;;;21.63;61.24;101117.16;5090396;28;1243;-64
2021/05/28 10:28:27;;;;;;;;;;;;;;;21.62;61.07;101113.66;5089900;28;659;-64
2021/05/28 10:31:13;;;;;;;;;;;;;;;21.62;60.95;101118.94;5088790;28;1240;-64
2021/05/28 10:34:01;;;;;;;;;;;;;;;21.63;61.05;101111.84;5090015;28;1070;-63
2021/05/28 10:36:46;;;;;;;;;;;;;;;21.62;61.21;101108.34;5089061;28;1921;-63
2021/05/28 10:39:44;;;;;;;;;;;;;;;21.63;61.28;101103.91;5090131;28;1095;-63
2021/05/28 10:42:29;;;;;;;;;;;;;;;21.62;61.21;101104.84;5090197;28;1287;-63
2021/05/28 10:45:35;;;;;;;;;;;;;;;21.62;61.25;101108.34;5090279;28;1077;-64
2021/05/28 10:51:30;;;;;;;;;;;;;;;21.63;61.24;101102.09;5089357;28;1219;-64
2021/05/28 10:54:15;;;;;;;;;;;;;;;21.63;61.24;101098.59;5088846;28;1086;-62
2021/05/28 10:57:27;;;;;;;;;;;;;;;21.63;61.10;101104.75;5089385;28;1965;-63
2021/05/28 11:00:20;;;;;;;;;;;;;;;21.64;60.92;101102.97;5089983;28;1045;-62
2021/05/28 11:03:11;;;;;;;;;;;;;;;21.64;61.15;101110.91;5090016;28;611;-64
2021/05/28 11:06:00;;;;;;;;;;;;;;;21.63;61.10;101102.09;5089693;28;1271;-64
2021/05/28 11:08:48;;;;;;;;;;;;;;;21.64;61.29;101100.31;5089307;28;1156;-64
2021/05/28 11:11:36;;;;;;;;;;;;;;;21.64;61.13;101100.31;5089274;28;1224;-63
2021/05/28 11:14:22;;;;;;;;;;;;;;;21.64;61.14;101105.63;5089340;28;916;-63
2021/05/28 11:17:10;;;;;;;;;;;;;;;21.64;61.13;101101.13;5089127;28;1953;-63
2021/05/28 11:19:57;;;;;;;;;;;;;;;21.65;60.98;101102.00;5089132;28;1063;-64
2021/05/28 11:22:42;;;;;;;;;;;;;;;21.64;61.26;101095.84;5087749;28;1220;-64
2021/05/28 11:25:32;;;;;;;;;;;;;;;21.65;60.96;101091.38;5089411;28;1047;-64
2021/05/28 11:28:18;;;;;;;;;;;;;;;21.65;61.21;101102.00;5088791;28;694;-63
2021/05/28 11:31:06;;;;;;;;;;;;;;;21.65;61.17;101102.00;5088024;28;1279;-63
2021/05/28 11:33:59;;;;;;;;;;;;;;;21.65;61.13;101094.91;5088531;28;1046;-64
2021/05/28 11:36:50;;;;;;;;;;;;;;;21.65;61.12;101100.19;5088083;28;1961;-63
2021/05/28 11:39:36;;;;;;;;;;;;;;;21.66;61.06;101103.69;5089360;28;1113;-63
2021/05/28 11:42:21;;;;;;;;;;;;;;;21.66;61.19;101104.56;5088370;28;1391;-64
2021/05/28 11:45:08;;;;;;;;;;;;;;;21.65;60.91;101097.53;5088311;28;932;-65
2021/05/28 11:47:54;;;;;;;;;;;;;;;21.67;60.98;101100.13;5088866;28;1290;-64
2021/05/28 11:50:40;;;;;;;;;;;;;;;21.66;61.13;101099.25;5087355;28;1601;-64
2021/05/28 11:53:33;;;;;;;;;;;;;;;21.67;60.95;101090.34;5088842;28;1119;-64
2021/05/28 11:56:22;;;;;;;;;;;;;;;21.67;61.08;101094.81;5088692;28;1910;-64
2021/05/28 11:59:07;;;;;;;;;;;;;;;21.67;61.07;101090.34;5088797;28;1049;-63
2021/05/28 12:01:52;;;;;;;;;;;;;;;21.67;60.94;101095.63;5088569;28;1284;-63
2021/05/28 12:04:38;;;;;;;;;;;;;;;21.68;60.85;101096.50;5087467;28;1066;-63
2021/05/28 12:07:26;;;;;;;;;;;;;;;21.69;60.91;101092.91;5089025;28;1259;-63
2021/05/28 12:10:12;;;;;;;;;;;;;;;21.69;60.94;101087.59;5088863;28;1038;-63
2021/05/28 12:12:58;;;;;;;;;;;;;;;21.69;60.83;101092.91;5088043;28;1310;-63
2021/05/28 12:16:01;;;;;;;;;;;;;;;21.69;60.93;101088.47;5088788;28;1975;-62
2021/05/28 12:18:47;;;;;;;;;;;;;;;21.70;60.89;101089.31;5088951;28;1014;-64
2021/05/28 12:21:32;;;;;;;;;;;;;;;21.70;60.96;101084.84;5087585;28;1404;-63
2021/05/28 12:24:18;;;;;;;;;;;;;;;21.70;60.73;101084.00;5089129;28;1058;-63
2021/05/28 12:27:03;;;;;;;;;;;;;;;21.71;60.91;101086.56;5088424;28;1298;-62
2021/05/28 12:29:48;;;;;;;;;;;;;;;21.72;61.04;101082.09;5088388;28;1112;-62
2021/05/28 12:32:34;;;;;;;;;;;;;;;21.71;61.03;101081.25;5088405;28;1212;-64
2021/05/28 12:35:22;;;;;;;;;;;;;;;21.72;61.05;101080.31;5088713;28;1156;-64
2021/05/28 12:38:12;;;;;;;;;;;;;;;21.73;61.20;101082.00;5088989;28;734;-62
2021/05/28 12:40:57;;;;;;;;;;;;;;;21.73;61.04;101078.50;5088807;28;1244;-64
2021/05/28 12:43:44;;;;;;;;;;;;;;;21.74;61.25;101072.25;5087491;28;1087;-63
2021/05/28 12:46:34;;;;;;;;;;;;;;;21.75;61.19;101074.81;5088477;28;1287;-63
2021/05/28 12:49:27;;;;;;;;;;;;;;;21.75;60.69;101074.81;5088518;28;1084;-63
2021/05/28 12:52:13;;;;;;;;;;;;;;;21.75;61.12;101079.25;5088969;28;1292;-63
2021/05/28 12:54:59;;;;;;;;;;;;;;;21.77;60.89;101077.34;5090988;28;1161;-63
2021/05/28 12:57:45;;;;;;;;;;;;;;;21.77;60.95;101072.03;5092209;28;1961;-63
2021/05/28 13:00:33;;;;;;;;;;;;;;;21.77;60.94;101072.03;5092394;28;1181;-63
2021/05/28 13:03:30;;;;;;;;;;;;;;;21.78;60.89;101073.75;5092114;28;643;-64
2021/05/28 13:06:31;;;;;;;;;;;;;;;21.77;60.89;101070.25;5091875;28;1363;-63
2021/05/28 13:09:23;;;;;;;;;;;;;;;21.79;60.81;101078.94;5091666;28;1099;-63
2021/05/28 13:12:10;;;;;;;;;;;;;;;21.79;60.51;101071.00;5091879;28;1220;-63
2021/05/28 13:14:56;;;;;;;;;;;;;;;21.80;60.63;101074.50;5091755;28;1040;-63
2021/05/28 13:17:42;;;;;;;;;;;;;;;21.81;60.76;101065.59;5091747;28;1914;-63
2021/05/28 13:20:29;;;;;;;;;;;;;;;21.82;60.72;101069.97;5091830;28;1029;-64
2021/05/28 13:23:19;;;;;;;;;;;;;;;21.82;60.67;101069.09;5091373;28;765;-64
2021/05/28 13:26:08;;;;;;;;;;;;;;;21.82;60.77;101067.31;5091563;28;1308;-63
2021/05/28 13:28:53;;;;;;;;;;;;;;;21.82;60.61;101069.97;5091345;28;917;-64
2021/05/28 13:31:40;;;;;;;;;;;;;;;21.82;60.77;101053.19;5089798;28;1372;-62
2021/05/28 13:34:26;;;;;;;;;;;;;;;21.82;60.59;101055.84;5089153;28;906;-62
2021/05/28 13:37:11;;;;;;;;;;;;;;;21.82;60.77;101056.72;5090879;28;1901;-62
2021/05/28 13:39:57;;;;;;;;;;;;;;;21.83;60.81;101057.53;5091225;28;1056;-62
2021/05/28 13:42:44;;;;;;;;;;;;;;;21.82;60.77;101055.84;5091193;28;1217;-62
2021/05/28 13:45:30;;;;;;;;;;;;;;;21.78;60.55;101041.94;5091191;28;1050;-62
2021/05/28 13:48:15;;;;;;;;;;;;;;;21.83;60.76;101041.63;5090931;28;718;-63
2021/05/28 13:51:02;;;;;;;;;;;;;;;21.82;60.80;101043.44;5089565;28;1576;-63
2021/05/28 13:53:47;;;;;;;;;;;;;;;21.82;60.88;101034.63;5090972;28;947;-63
2021/05/28 13:56:32;;;;;;;;;;;;;;;21.82;60.81;101048.75;5090676;28;1906;-63
2021/05/28 13:59:17;;;;;;;;;;;;;;;21.81;60.92;101041.75;5091037;28;913;-63
2021/05/28 14:02:04;;;;;;;;;;;;;;;21.82;60.88;101032.84;5090459;28;1196;-62
2021/05/28 14:04:49;;;;;;;;;;;;;;;21.81;60.93;101033.78;5088245;28;1141;-62
2021/05/28 14:07:34;;;;;;;;;;;;;;;21.81;60.65;101039.09;5090608;28;1329;-63
2021/05/28 14:10:21;;;;;;;;;;;;;;;21.82;60.86;101037.28;5089136;28;1048;-62
2021/05/28 14:13:06;;;;;;;;;;;;;;;21.81;60.86;101044.38;5090411;28;596;-63
2021/05/28 14:15:51;;;;;;;;;;;;;;;21.81;60.54;101033.78;5089833;28;1894;-64
2021/05/28 14:18:36;;;;;;;;;;;;;;;21.82;60.64;101038.16;5090317;28;1044;-63
2021/05/28 14:21:21;;;;;;;;;;;;;;;21.82;60.90;101045.25;5090018;28;1336;-63
2021/05/28 14:24:07;;;;;;;;;;;;;;;21.82;60.90;101046.09;5090207;28;1029;-63
2021/05/28 14:26:52;;;;;;;;;;;;;;;21.82;60.90;101045.25;5090088;28;1224;-63
2021/05/28 14:29:38;;;;;;;;;;;;;;;21.82;60.93;101042.59;5090307;28;1080;-62
2021/05/28 14:32:25;;;;;;;;;;;;;;;21.82;60.69;101034.63;5090288;28;1247;-63